Corinth, Vermont
Current Conditions -  °F | °C
As of 11:51 PM on Wednesday 22 Oct 2014 (Local Time) from KMPV Reporting Station
Overcast Overcast  
Wind Chill: 42°   Ceiling: 1900
Heat Index: 47°   Visibility: 10mi
Dew Point: 40°   Wind: 12mph
Humidity: 77%   Direction: 350°N
Pressure: 30.04"   Gusts: NA
Location:  44.02°N, 72.3°W
Report Text: KMPV 230351Z AUTO 35010KT 10SM OVC019 08/04 A3004 RMK AO2 SLP180 T00830044 $
Loading
Personal Weather Stations






























Interactive Weather Map New forecast layout! Learn more

10-Day Weather Forecast

Advertisements
Track Severe Weather on mobile